createdAt,value
2023-10-10T00:01:45.543Z,97.20
2023-10-10T00:04:20.523Z,97.20
2023-10-10T00:06:51.088Z,97.10
2023-10-10T00:09:21.811Z,97.10
2023-10-10T00:11:50.055Z,97.10
2023-10-10T00:14:20.391Z,97.10
2023-10-10T00:16:55.953Z,97.00
2023-10-10T00:19:31.175Z,97.00
2023-10-10T00:22:01.285Z,97.00
2023-10-10T00:24:33.168Z,96.90
2023-10-10T00:27:07.385Z,96.90
2023-10-10T00:29:35.683Z,96.90
2023-10-10T00:32:14.387Z,96.80
2023-10-10T00:34:48.836Z,96.80
2023-10-10T00:37:21.891Z,96.80
2023-10-10T00:39:53.946Z,97.10
2023-10-10T00:42:22.941Z,96.80
2023-10-10T00:44:54.690Z,96.80
2023-10-10T00:47:27.417Z,96.80
2023-10-10T00:49:57.670Z,96.90
2023-10-10T00:52:25.883Z,96.90
2023-10-10T00:54:54.034Z,96.90
2023-10-10T00:57:22.326Z,96.90
2023-10-10T00:59:56.122Z,97.30
2023-10-10T01:02:25.264Z,96.90
2023-10-10T01:04:58.683Z,96.90
2023-10-10T01:07:28.274Z,96.90
2023-10-10T01:10:01.071Z,96.90
2023-10-10T01:12:37.247Z,96.90
2023-10-10T01:15:09.881Z,97.00
2023-10-10T01:17:39.658Z,97.00
2023-10-10T01:20:19.140Z,97.00
2023-10-10T01:22:50.134Z,97.10
2023-10-10T01:25:44.641Z,97.10
2023-10-10T01:28:24.694Z,97.20
2023-10-10T01:31:05.822Z,97.20
2023-10-10T01:33:48.748Z,97.30
2023-10-10T01:36:22.065Z,97.30
2023-10-10T01:39:22.688Z,97.30
2023-10-10T01:41:51.544Z,97.40
2023-10-10T01:44:23.797Z,97.40
2023-10-10T01:46:56.162Z,97.40
2023-10-10T01:49:30.241Z,97.50
2023-10-10T01:52:00.796Z,97.50
2023-10-10T01:54:41.746Z,97.50
2023-10-10T01:57:22.268Z,97.60
2023-10-10T01:59:52.751Z,97.60
2023-10-10T02:02:25.313Z,97.70
2023-10-10T02:05:00.753Z,97.70
2023-10-10T02:07:33.968Z,97.70
2023-10-10T02:10:15.034Z,97.80
2023-10-10T02:12:46.987Z,97.80
2023-10-10T02:15:19.848Z,97.90
2023-10-10T02:17:52.937Z,97.90
2023-10-10T02:20:34.974Z,97.90
2023-10-10T02:23:10.615Z,98.00
2023-10-10T02:25:41.345Z,98.10
2023-10-10T02:28:22.041Z,98.10
2023-10-10T02:30:54.186Z,98.10
2023-10-10T02:33:32.274Z,98.10
2023-10-10T02:36:01.204Z,98.10
2023-10-10T02:38:34.964Z,98.20
2023-10-10T02:41:26.277Z,98.20
2023-10-10T02:44:05.687Z,98.20
2023-10-10T02:46:39.136Z,98.20
2023-10-10T02:49:14.369Z,98.20
2023-10-10T02:51:44.972Z,98.30
2023-10-10T02:54:29.352Z,98.30
2023-10-10T02:57:22.826Z,98.30
2023-10-10T02:59:53.247Z,98.60
2023-10-10T03:02:22.265Z,98.30
2023-10-10T03:05:16.473Z,98.30
2023-10-10T03:07:53.458Z,98.30
2023-10-10T03:10:37.156Z,98.30
2023-10-10T03:13:14.722Z,98.40
2023-10-10T03:15:52.605Z,98.40
2023-10-10T03:18:28.911Z,98.50
2023-10-10T03:21:20.428Z,98.50
2023-10-10T03:23:55.402Z,98.50
2023-10-10T03:26:52.880Z,98.60
2023-10-10T03:29:38.607Z,98.60
2023-10-10T03:32:32.702Z,98.70
2023-10-10T03:35:07.137Z,98.70
2023-10-10T03:37:42.802Z,98.70
2023-10-10T03:40:23.625Z,98.70
2023-10-10T03:43:09.139Z,98.80
2023-10-10T03:46:06.120Z,98.90
2023-10-10T03:48:51.825Z,99.00
2023-10-10T03:51:37.507Z,99.20
2023-10-10T03:54:23.277Z,99.30
2023-10-10T03:57:08.912Z,99.40
2023-10-10T04:00:02.897Z,99.40
2023-10-10T04:02:50.239Z,99.50
2023-10-10T04:05:36.352Z,99.50
2023-10-10T04:08:22.475Z,99.50
2023-10-10T04:11:08.369Z,99.60
2023-10-10T04:13:53.642Z,99.80
2023-10-10T04:16:39.145Z,99.80
2023-10-10T04:19:26.354Z,99.80
2023-10-10T04:22:12.481Z,99.90
2023-10-10T04:25:00.854Z,99.90
2023-10-10T04:27:47.850Z,99.90
2023-10-10T04:30:33.767Z,99.90
2023-10-10T04:33:19.336Z,99.90
2023-10-10T04:36:06.594Z,99.90
2023-10-10T04:38:52.112Z,99.90
2023-10-10T04:41:37.954Z,99.90
2023-10-10T04:44:24.395Z,99.90
2023-10-10T04:47:10.991Z,99.90
2023-10-10T04:49:56.864Z,99.90
2023-10-10T04:52:43.755Z,99.90
2023-10-10T04:55:29.152Z,99.90
2023-10-10T04:58:14.927Z,99.90
2023-10-10T05:01:00.578Z,99.90
2023-10-10T05:03:46.302Z,99.90
2023-10-10T05:06:33.648Z,99.90
2023-10-10T05:09:23.130Z,99.90
2023-10-10T05:12:08.575Z,99.90
2023-10-10T05:14:54.044Z,99.90
2023-10-10T05:17:39.615Z,99.90
2023-10-10T05:20:27.008Z,99.90
2023-10-10T05:23:12.474Z,99.90
2023-10-10T05:25:42.871Z,99.90
2023-10-10T05:28:12.196Z,99.90
2023-10-10T05:30:45.569Z,99.90
2023-10-10T05:33:15.066Z,99.90
2023-10-10T05:35:48.890Z,99.90
2023-10-10T05:38:17.891Z,99.90
2023-10-10T05:40:48.762Z,99.90
2023-10-10T05:43:17.780Z,99.90
2023-10-10T05:45:46.715Z,99.90
2023-10-10T05:48:15.939Z,99.90
2023-10-10T05:50:44.472Z,99.90
2023-10-10T05:53:12.868Z,99.90
2023-10-10T05:55:42.299Z,99.90
2023-10-10T05:58:13.543Z,99.90
2023-10-10T06:00:45.826Z,99.90
2023-10-10T06:03:14.694Z,99.90
2023-10-10T06:05:45.509Z,99.90
2023-10-10T06:08:15.105Z,99.90
2023-10-10T06:10:43.281Z,99.90
2023-10-10T06:13:13.142Z,99.90
2023-10-10T06:15:42.231Z,99.90
2023-10-10T06:18:16.750Z,99.90
2023-10-10T06:23:17.485Z,99.90
2023-10-10T06:25:47.294Z,99.90
2023-10-10T06:28:27.128Z,99.90
2023-10-10T06:30:55.846Z,99.90
2023-10-10T06:33:29.572Z,99.90
2023-10-10T06:36:26.751Z,99.90
2023-10-10T06:39:19.592Z,99.90
2023-10-10T06:41:56.118Z,99.90
2023-10-10T06:44:36.240Z,99.90
2023-10-10T06:47:12.346Z,99.90
2023-10-10T06:49:59.512Z,99.90
2023-10-10T06:52:29.916Z,99.90
2023-10-10T06:54:59.059Z,99.90
2023-10-10T06:57:45.564Z,99.90
2023-10-10T07:00:23.244Z,99.90
2023-10-10T07:02:54.478Z,99.90
2023-10-10T07:05:27.413Z,99.90
2023-10-10T07:07:59.563Z,99.90
2023-10-10T07:10:34.166Z,99.90
2023-10-10T07:13:02.449Z,99.90
2023-10-10T07:15:36.427Z,99.90
2023-10-10T07:18:11.151Z,99.90
2023-10-10T07:20:57.218Z,99.90
2023-10-10T07:23:25.721Z,99.90
2023-10-10T07:26:06.044Z,99.90
2023-10-10T07:28:49.162Z,99.90
2023-10-10T07:31:22.101Z,99.90
2023-10-10T07:33:57.020Z,99.90
2023-10-10T07:36:28.444Z,99.90
2023-10-10T07:39:17.015Z,99.90
2023-10-10T07:41:46.682Z,99.90
2023-10-10T07:44:18.094Z,99.90
2023-10-10T07:47:11.086Z,99.90
2023-10-10T07:49:41.811Z,99.90
2023-10-10T07:52:17.631Z,99.90
2023-10-10T07:54:47.049Z,99.90
2023-10-10T07:57:19.135Z,99.90
2023-10-10T07:59:48.042Z,99.90
2023-10-10T08:02:29.406Z,99.90
2023-10-10T08:04:59.180Z,99.90
2023-10-10T08:07:27.557Z,99.90
2023-10-10T08:10:14.358Z,99.90
2023-10-10T08:12:43.464Z,99.90
2023-10-10T08:15:26.586Z,99.90
2023-10-10T08:18:00.140Z,99.90
2023-10-10T08:20:50.019Z,99.90
2023-10-10T08:23:18.415Z,99.90
2023-10-10T08:25:49.999Z,99.90
2023-10-10T08:28:17.958Z,99.90
2023-10-10T08:30:46.198Z,99.90
2023-10-10T08:33:15.766Z,99.90
2023-10-10T08:35:44.069Z,99.90
2023-10-10T08:38:14.434Z,99.90
2023-10-10T08:40:43.075Z,99.90
2023-10-10T08:43:11.329Z,99.90
2023-10-10T08:45:45.367Z,99.90
2023-10-10T08:48:17.892Z,99.90
2023-10-10T08:50:46.989Z,99.90
2023-10-10T08:53:16.568Z,99.90
2023-10-10T08:55:44.915Z,99.90
2023-10-10T08:58:12.992Z,99.90
2023-10-10T09:00:41.933Z,99.90
2023-10-10T09:03:10.596Z,99.90
2023-10-10T09:05:41.128Z,99.90
2023-10-10T09:08:16.007Z,99.90
2023-10-10T09:10:49.552Z,99.90
2023-10-10T09:13:18.572Z,99.90
2023-10-10T09:15:57.082Z,99.90
2023-10-10T09:18:27.555Z,99.90
2023-10-10T09:21:19.513Z,99.90
2023-10-10T09:24:08.719Z,99.90
2023-10-10T09:26:37.922Z,99.90
2023-10-10T09:29:17.509Z,99.90
2023-10-10T09:31:47.057Z,99.90
2023-10-10T09:34:20.266Z,99.90
2023-10-10T09:36:56.779Z,99.90
2023-10-10T09:39:38.055Z,99.80
2023-10-10T09:42:23.994Z,99.60
2023-10-10T09:45:15.843Z,99.50
2023-10-10T09:47:54.116Z,99.20
2023-10-10T09:50:36.263Z,99.20
2023-10-10T09:53:21.288Z,99.20
2023-10-10T09:55:55.051Z,99.20
2023-10-10T09:58:29.000Z,99.00
2023-10-10T10:01:05.888Z,99.00
2023-10-10T10:03:33.645Z,98.90
2023-10-10T10:06:28.000Z,98.70
2023-10-10T10:09:18.752Z,98.60
2023-10-10T10:12:05.184Z,98.40
2023-10-10T10:14:41.261Z,98.40
2023-10-10T10:17:20.117Z,98.20
2023-10-10T10:19:49.665Z,98.10
2023-10-10T10:22:20.279Z,98.10
2023-10-10T10:25:23.602Z,98.00
2023-10-10T10:27:51.638Z,97.90
2023-10-10T10:30:36.291Z,97.80
2023-10-10T10:33:04.826Z,97.80
2023-10-10T10:36:15.749Z,97.70
2023-10-10T10:39:00.064Z,97.60
2023-10-10T10:41:43.493Z,97.40
2023-10-10T10:44:14.967Z,97.30
2023-10-10T10:46:49.218Z,97.30
2023-10-10T10:49:23.305Z,97.20
2023-10-10T10:52:12.170Z,97.10
2023-10-10T10:54:44.845Z,97.40
2023-10-10T10:57:43.158Z,97.00
2023-10-10T11:00:29.798Z,96.80
2023-10-10T11:03:02.119Z,96.70
2023-10-10T11:05:31.138Z,96.50
2023-10-10T11:08:12.626Z,96.20
2023-10-10T11:10:47.626Z,96.10
2023-10-10T11:13:17.488Z,96.00
2023-10-10T11:15:47.480Z,95.80
2023-10-10T11:18:24.348Z,95.80
2023-10-10T11:21:08.203Z,95.80
2023-10-10T11:23:43.850Z,95.60
2023-10-10T11:26:15.165Z,95.30
2023-10-10T11:28:49.550Z,95.00
2023-10-10T11:31:25.326Z,95.00
2023-10-10T11:34:12.043Z,94.70
2023-10-10T11:36:40.874Z,94.50
2023-10-10T11:39:33.259Z,94.20
2023-10-10T11:42:05.632Z,94.00
2023-10-10T11:44:36.317Z,93.70
2023-10-10T11:47:09.602Z,93.10
2023-10-10T11:49:37.594Z,92.80
2023-10-10T11:52:06.040Z,92.40
2023-10-10T11:54:34.013Z,92.40
2023-10-10T11:57:02.534Z,92.30
2023-10-10T11:59:34.375Z,92.20
2023-10-10T12:02:09.643Z,92.40
2023-10-10T12:04:39.240Z,92.70
2023-10-10T12:07:08.060Z,92.50
2023-10-10T12:09:39.899Z,92.60
2023-10-10T12:12:08.706Z,92.50
2023-10-10T12:14:36.795Z,92.40
2023-10-10T12:17:08.001Z,92.40
2023-10-10T12:19:45.375Z,92.10
2023-10-10T12:22:14.084Z,91.60
2023-10-10T12:24:42.120Z,91.00
2023-10-10T12:27:11.088Z,90.40
2023-10-10T12:29:42.027Z,89.50
2023-10-10T12:32:19.699Z,87.60
2023-10-10T12:34:47.985Z,86.50
2023-10-10T12:37:17.820Z,84.90
2023-10-10T12:39:46.887Z,82.40
2023-10-10T12:42:15.915Z,80.30
2023-10-10T12:44:49.922Z,79.30
2023-10-10T12:47:20.707Z,78.20
2023-10-10T12:49:48.815Z,78.50
2023-10-10T12:52:18.972Z,78.60
2023-10-10T12:54:58.355Z,78.70
2023-10-10T12:57:34.257Z,78.70
2023-10-10T13:00:17.518Z,78.40
2023-10-10T13:02:47.761Z,78.70
2023-10-10T13:05:17.963Z,79.40
2023-10-10T13:07:46.096Z,79.20
2023-10-10T13:10:14.508Z,79.60
2023-10-10T13:12:46.533Z,79.90
2023-10-10T13:15:19.178Z,80.00
2023-10-10T13:18:12.539Z,80.30
2023-10-10T13:20:41.510Z,80.80
2023-10-10T13:23:10.601Z,80.70
2023-10-10T13:25:39.246Z,80.80
2023-10-10T13:28:12.623Z,80.50
2023-10-10T13:30:42.715Z,81.30
2023-10-10T13:33:12.134Z,80.60
2023-10-10T13:35:40.600Z,80.40
2023-10-10T13:38:10.006Z,80.70
2023-10-10T13:40:46.510Z,80.70
2023-10-10T13:43:18.625Z,80.40
2023-10-10T13:45:49.148Z,80.70
2023-10-10T13:48:20.182Z,81.10
2023-10-10T13:50:52.496Z,81.00
2023-10-10T13:53:22.421Z,80.50
2023-10-10T13:55:51.977Z,80.10
2023-10-10T13:58:20.030Z,79.60
2023-10-10T14:00:53.851Z,79.90
2023-10-10T14:03:31.391Z,79.90
2023-10-10T14:06:05.430Z,79.80
2023-10-10T14:08:34.400Z,80.10
2023-10-10T14:11:03.401Z,79.80
2023-10-10T14:13:33.961Z,79.80
2023-10-10T14:16:02.739Z,79.70
2023-10-10T14:18:43.090Z,79.70
2023-10-10T14:21:13.111Z,79.40
2023-10-10T14:23:42.089Z,79.10
2023-10-10T14:26:18.790Z,78.70
2023-10-10T14:28:51.500Z,78.70
2023-10-10T14:31:22.252Z,78.80
2023-10-10T14:33:52.644Z,78.90
2023-10-10T14:36:21.438Z,78.90
2023-10-10T14:38:52.482Z,78.80
2023-10-10T14:41:22.109Z,79.00
2023-10-10T14:43:52.171Z,78.90
2023-10-10T14:46:24.198Z,79.30
2023-10-10T14:49:02.221Z,79.70
2023-10-10T14:51:35.436Z,79.60
2023-10-10T14:54:08.612Z,80.20
2023-10-10T14:56:38.196Z,80.40
2023-10-10T14:59:08.259Z,80.50
2023-10-10T15:01:37.469Z,80.10
2023-10-10T15:04:10.102Z,79.70
2023-10-10T15:06:41.517Z,79.60
2023-10-10T15:09:14.886Z,79.60
2023-10-10T15:11:44.010Z,79.70
2023-10-10T15:14:12.240Z,79.80
2023-10-10T15:16:40.968Z,80.80
2023-10-10T15:19:11.160Z,80.40
2023-10-10T15:21:39.931Z,80.80
2023-10-10T15:24:12.635Z,81.00
2023-10-10T15:26:41.052Z,81.20
2023-10-10T15:29:12.012Z,81.60
2023-10-10T15:31:41.384Z,82.00
2023-10-10T15:34:13.189Z,82.30
2023-10-10T15:36:45.478Z,82.60
2023-10-10T15:39:14.716Z,82.90
2023-10-10T15:41:45.712Z,83.40
2023-10-10T15:44:16.814Z,83.80
2023-10-10T15:46:49.449Z,84.30
2023-10-10T15:49:35.112Z,85.30
2023-10-10T15:52:07.926Z,85.90
2023-10-10T15:54:36.660Z,86.70
2023-10-10T15:57:07.440Z,87.00
2023-10-10T15:59:36.962Z,87.50
2023-10-10T16:02:10.041Z,88.40
2023-10-10T16:04:45.668Z,89.20
2023-10-10T16:07:17.997Z,90.00
2023-10-10T16:09:46.372Z,90.30
2023-10-10T16:12:14.722Z,90.50
2023-10-10T16:14:42.783Z,90.80
2023-10-10T16:17:17.072Z,91.00
2023-10-10T16:19:47.018Z,91.20
2023-10-10T16:22:15.907Z,91.50
2023-10-10T16:24:44.094Z,91.70
2023-10-10T16:27:12.336Z,91.90
2023-10-10T16:29:42.218Z,92.20
2023-10-10T16:32:19.520Z,92.40
2023-10-10T16:34:49.402Z,92.50
2023-10-10T16:37:19.909Z,92.60
2023-10-10T16:39:48.622Z,92.70
2023-10-10T16:42:19.750Z,92.80
2023-10-10T16:44:48.426Z,93.00
2023-10-10T16:47:18.946Z,93.10
2023-10-10T16:49:50.624Z,93.30
2023-10-10T16:52:19.177Z,93.40
2023-10-10T16:54:52.694Z,93.90
2023-10-10T16:57:24.456Z,93.70
2023-10-10T16:59:58.115Z,93.90
2023-10-10T17:02:30.581Z,94.30
2023-10-10T17:05:05.777Z,94.30
2023-10-10T17:07:33.984Z,94.50
2023-10-10T17:10:07.543Z,94.70
2023-10-10T17:12:37.065Z,94.90
2023-10-10T17:15:06.451Z,95.00
2023-10-10T17:17:36.838Z,95.10
2023-10-10T17:20:08.778Z,95.30
2023-10-10T17:22:38.782Z,95.40
2023-10-10T17:25:09.902Z,95.40
2023-10-10T17:27:38.390Z,95.40
2023-10-10T17:30:07.644Z,95.50
2023-10-10T17:32:35.697Z,95.60
2023-10-10T17:35:05.846Z,95.60
2023-10-10T17:37:35.607Z,95.70
2023-10-10T17:40:06.591Z,95.70
2023-10-10T17:42:36.134Z,95.80
2023-10-10T17:45:04.931Z,95.80
2023-10-10T17:47:33.120Z,95.90
2023-10-10T17:50:01.461Z,96.00
2023-10-10T17:52:29.872Z,96.10
2023-10-10T17:54:59.158Z,96.20
2023-10-10T17:57:27.193Z,96.30
2023-10-10T17:59:55.424Z,96.50
2023-10-10T18:02:24.177Z,96.60
2023-10-10T18:04:52.996Z,96.70
2023-10-10T18:07:23.236Z,96.80
2023-10-10T18:09:56.181Z,96.80
2023-10-10T18:12:25.760Z,96.90
2023-10-10T18:14:55.305Z,97.00
2023-10-10T18:17:25.422Z,97.00
2023-10-10T18:19:53.493Z,97.50
2023-10-10T18:22:21.548Z,97.20
2023-10-10T18:24:58.246Z,97.30
2023-10-10T18:27:29.843Z,97.30
2023-10-10T18:29:59.354Z,97.40
2023-10-10T18:32:29.532Z,97.50
2023-10-10T18:34:57.500Z,97.50
2023-10-10T18:37:26.965Z,97.60
2023-10-10T18:39:55.026Z,97.60
2023-10-10T18:42:23.207Z,97.60
2023-10-10T18:44:52.933Z,97.70
2023-10-10T18:47:20.960Z,97.70
2023-10-10T18:49:48.888Z,97.70
2023-10-10T18:52:16.960Z,97.80
2023-10-10T18:54:46.376Z,97.80
2023-10-10T18:57:14.614Z,97.80
2023-10-10T18:59:44.061Z,97.90
2023-10-10T19:02:14.175Z,98.10
2023-10-10T19:04:43.572Z,97.90
2023-10-10T19:07:11.778Z,97.90
2023-10-10T19:09:44.019Z,97.80
2023-10-10T19:12:12.186Z,97.90
2023-10-10T19:14:40.688Z,97.80
2023-10-10T19:17:08.839Z,97.80
2023-10-10T19:19:40.242Z,97.80
2023-10-10T19:22:09.009Z,97.80
2023-10-10T19:24:39.794Z,97.70
2023-10-10T19:27:12.015Z,97.70
2023-10-10T19:29:40.127Z,97.60
2023-10-10T19:32:08.394Z,97.60
2023-10-10T19:34:37.927Z,97.60
2023-10-10T19:37:06.510Z,97.60
2023-10-10T19:39:34.485Z,97.60
2023-10-10T19:42:05.253Z,97.50
2023-10-10T19:44:33.685Z,97.50
2023-10-10T19:47:08.210Z,97.50
2023-10-10T19:49:38.312Z,97.90
2023-10-10T19:52:06.653Z,97.60
2023-10-10T19:54:38.049Z,97.60
2023-10-10T19:57:06.329Z,97.60
2023-10-10T19:59:38.432Z,97.70
2023-10-10T20:04:39.631Z,97.90
2023-10-10T20:07:07.602Z,97.90
2023-10-10T20:09:36.934Z,98.00
2023-10-10T20:12:05.608Z,98.10
2023-10-10T20:14:33.773Z,98.10
2023-10-10T20:17:02.244Z,98.20
2023-10-10T20:19:31.061Z,98.30
2023-10-10T20:22:00.622Z,98.30
2023-10-10T20:24:28.612Z,98.30
2023-10-10T20:26:57.058Z,98.40
2023-10-10T20:29:27.652Z,98.50
2023-10-10T20:31:56.648Z,98.50
2023-10-10T20:34:24.631Z,98.60
2023-10-10T20:36:52.871Z,98.60
2023-10-10T20:39:22.374Z,98.70
2023-10-10T20:41:50.870Z,98.80
2023-10-10T20:44:19.294Z,99.20
2023-10-10T20:46:49.321Z,98.90
2023-10-10T20:49:18.128Z,99.00
2023-10-10T20:51:46.894Z,99.10
2023-10-10T20:54:17.361Z,99.10
2023-10-10T20:56:50.764Z,99.20
2023-10-10T20:59:19.837Z,99.30
2023-10-10T21:01:49.512Z,99.30
2023-10-10T21:04:18.242Z,99.30
2023-10-10T21:06:47.805Z,99.40
2023-10-10T21:09:16.744Z,99.50
2023-10-10T21:11:46.717Z,99.50
2023-10-10T21:14:14.682Z,99.60
2023-10-10T21:16:48.082Z,99.60
2023-10-10T21:19:16.406Z,99.70
2023-10-10T21:21:45.026Z,99.70
2023-10-10T21:24:13.298Z,99.80
2023-10-10T21:26:42.035Z,99.80
2023-10-10T21:29:11.863Z,99.80
2023-10-10T21:31:39.746Z,99.90
2023-10-10T21:34:08.484Z,99.90
2023-10-10T21:36:37.026Z,99.90
2023-10-10T21:39:06.264Z,99.90
2023-10-10T21:41:34.615Z,99.90
2023-10-10T21:44:03.052Z,99.90
2023-10-10T21:46:32.388Z,99.90
2023-10-10T21:49:00.332Z,99.90
2023-10-10T21:51:28.217Z,99.90
2023-10-10T21:53:56.224Z,99.90
2023-10-10T21:56:24.206Z,99.90
2023-10-10T21:58:52.114Z,99.90
2023-10-10T22:01:20.038Z,99.90
2023-10-10T22:03:49.821Z,99.90
2023-10-10T22:06:19.287Z,99.90
2023-10-10T22:08:48.223Z,99.90
2023-10-10T22:11:16.401Z,99.90
2023-10-10T22:13:45.764Z,99.90
2023-10-10T22:16:14.383Z,99.90
2023-10-10T22:18:43.319Z,99.90
2023-10-10T22:21:12.887Z,99.90
2023-10-10T22:23:42.790Z,99.90
2023-10-10T22:26:11.980Z,99.90
2023-10-10T22:28:40.614Z,99.90
2023-10-10T22:31:17.144Z,99.90
2023-10-10T22:33:45.361Z,99.90
2023-10-10T22:36:16.792Z,99.90
2023-10-10T22:38:47.201Z,99.90
2023-10-10T22:41:19.822Z,99.90
2023-10-10T22:43:48.428Z,99.90
2023-10-10T22:46:16.306Z,99.90
2023-10-10T22:48:45.516Z,99.90
2023-10-10T22:51:14.985Z,99.90
2023-10-10T22:53:47.455Z,99.90
2023-10-10T22:56:19.442Z,99.90
2023-10-10T22:58:47.978Z,99.90
2023-10-10T23:01:19.172Z,99.90
2023-10-10T23:03:47.761Z,99.90
2023-10-10T23:06:21.639Z,99.90
2023-10-10T23:08:49.716Z,99.90
2023-10-10T23:11:18.015Z,99.90
2023-10-10T23:13:46.698Z,99.90
2023-10-10T23:16:18.973Z,99.90
2023-10-10T23:18:47.408Z,99.90
2023-10-10T23:21:15.866Z,99.90
2023-10-10T23:23:45.381Z,99.90
2023-10-10T23:26:18.317Z,99.90
2023-10-10T23:28:46.485Z,99.90
2023-10-10T23:31:14.523Z,99.90
2023-10-10T23:33:42.719Z,99.90
2023-10-10T23:36:12.456Z,99.90
2023-10-10T23:38:45.475Z,99.90
2023-10-10T23:41:16.470Z,99.90
2023-10-10T23:43:47.640Z,99.90
2023-10-10T23:46:23.725Z,99.90
2023-10-10T23:48:52.829Z,99.90
2023-10-10T23:51:21.304Z,99.90
2023-10-10T23:53:49.685Z,99.90
2023-10-10T23:56:20.181Z,99.90
2023-10-10T23:58:52.875Z,99.90
